Asiatic Liberty — 9V3932 — position and weather

sailwx.info

Track history (hours):
 
Tides and Currents Weather Stations Pressure Air Temp Water Temp Dewpoint Dewpoint Depression Visibility Wind Speed Wind Dir Waves Ship Positions

Asiatic Liberty

Last reported at 2018-Jul-20 07:28 UTC. Time now 2018-Jul-22 14:36 UTC.
Position N 43°16' E 014°47'.

Length 148 m; draft 6.6 m.

Type: Ship (hazmat cat A). MMSI: 565834000.

Date/timePositionNaut miles runAvg speedWind from/ knotsBaromVisibWave heightAir tempDewpointWater temp
2018-Jul-20 07:28N 43°16' E 014°47'2511.1
2018-Jul-20 05:12N 43°32' E 014°21'211.3
2018-Jul-20 05:00N 43°34' E 014°19'711.0
2018-Jul-20 04:20N 43°39' E 014°11'411.0
2018-Jul-20 04:00N 43°41' E 014°07'511.1
2018-Jul-20 03:30N 43°45' E 014°02'611.3
2018-Jul-20 02:57N 43°49' E 013°56'511.4
2018-Jul-20 02:30N 43°53' E 013°51'611.4
2018-Jul-20 02:00N 43°56' E 013°44'611.4
2018-Jul-20 01:30N 43°59' E 013°38'711.5
2018-Jul-20 00:53N 44°03' E 013°29'711.3
2018-Jul-20 00:14N 44°08' E 013°21'311.3
2018-Jul-20 00:00N 44°09' E 013°18'611.4
2018-Jul-19 23:31N 44°12' E 013°11'611.5
2018-Jul-19 23:00N 44°15' E 013°05'611.6
2018-Jul-19 22:31N 44°18' E 012°58'711.5
2018-Jul-19 21:54N 44°22' E 012°49'511.6
2018-Jul-19 21:30N 44°24' E 012°44'611.4
2018-Jul-19 21:00N 44°27' E 012°36'611.4
2018-Jul-19 20:29N 44°29' E 012°29'511.0
2018-Jul-19 20:00N 44°30' E 012°22'4 7.8
2018-Jul-19 19:30N 44°29' E 012°16'2 0.7
2018-Jul-19 16:00N 44°27' E 012°15'0 0.0
2018-Jul-19 15:18N 44°27' E 012°15'0 0.0
2018-Jul-19 14:48N 44°27' E 012°15'0 0.0
2018-Jul-19 11:13N 44°27' E 012°15'0 0.0
2018-Jul-19 10:40N 44°27' E 012°15'0 0.0
2018-Jul-19 10:28N 44°27' E 012°15'0 0.9
2018-Jul-19 09:59N 44°27' E 012°15'2 4.5
2018-Jul-19 09:30N 44°29' E 012°16'4 8.1
2018-Jul-19 09:00N 44°30' E 012°21'5 9.8
2018-Jul-19 08:30N 44°34' E 012°25'611.4
2018-Jul-19 07:59N 44°39' E 012°29'611.6
2018-Jul-19 07:30N 44°44' E 012°32'611.6
2018-Jul-19 07:00N 44°50' E 012°35'611.7
2018-Jul-19 06:29N 44°55' E 012°38'612.0
2018-Jul-19 06:00N 45°01' E 012°40'612.2
2018-Jul-19 05:30N 45°07' E 012°40'612.2
2018-Jul-19 05:00N 45°11' E 012°33'611.5
2018-Jul-19 04:29N 45°16' E 012°28'611.8
2018-Jul-19 04:00N 45°20' E 012°22'5 9.6
2018-Jul-19 03:29N 45°21' E 012°15'4 8.7
2018-Jul-19 03:00N 45°26' E 012°16'2 3.1
2018-Jul-19 02:26N 45°27' E 012°15'0 0.0
2018-Jul-19 01:59N 45°27' E 012°15'0 0.0
2018-Jul-19 00:55N 45°27' E 012°15'0 0.0
2018-Jul-19 00:28N 45°27' E 012°15'0 0.0
2018-Jul-18 23:52N 45°27' E 012°15'0 0.0
2018-Jul-18 23:28N 45°27' E 012°15'0 0.0
2018-Jul-18 22:58N 45°27' E 012°15'0 0.0
2018-Jul-18 22:27N 45°27' E 012°15'0 0.0
2018-Jul-18 22:00N 45°27' E 012°15'0 0.0
2018-Jul-18 21:27N 45°27' E 012°15'0 0.0
2018-Jul-18 20:14N 45°27' E 012°15'0 0.0
2018-Jul-18 19:53N 45°27' E 012°15'0 0.0
2018-Jul-18 19:23N 45°27' E 012°15'0 0.0
2018-Jul-18 18:41N 45°27' E 012°15'0 0.0
2018-Jul-18 18:23N 45°27' E 012°15'0 0.0
2018-Jul-18 17:58N 45°27' E 012°15'0 0.0
2018-Jul-18 17:25N 45°27' E 012°15'0 0.0
2018-Jul-18 16:58N 45°27' E 012°15'0 0.0
2018-Jul-18 16:28N 45°27' E 012°15'0 0.0
2018-Jul-18 16:01N 45°27' E 012°15'0 0.0
2018-Jul-18 15:27N 45°27' E 012°15'0 0.0
2018-Jul-18 14:45N 45°27' E 012°15'0 0.0
2018-Jul-18 14:30N 45°27' E 012°15'0 0.0
2018-Jul-18 13:17N 45°27' E 012°15'0 0.0
2018-Jul-18 12:53N 45°27' E 012°15'0 0.0
2018-Jul-18 12:26N 45°27' E 012°15'0 0.0
2018-Jul-18 12:01N 45°27' E 012°15'0 0.0
2018-Jul-18 11:26N 45°27' E 012°15'0 0.2
2018-Jul-18 10:30N 45°27' E 012°15'3 5.5
2018-Jul-18 10:00N 45°24' E 012°16'4 8.1
2018-Jul-18 09:29N 45°20' E 012°18'510.0
2018-Jul-18 09:00N 45°19' E 012°24'610.8
2018-Jul-18 08:29N 45°18' E 012°32'612.2
2018-Jul-18 08:00N 45°20' E 012°40'612.0
2018-Jul-18 07:30N 45°23' E 012°47'612.3
2018-Jul-18 07:00N 45°26' E 012°55'612.3
2018-Jul-18 06:30N 45°29' E 013°03'612.3
2018-Jul-18 06:00N 45°31' E 013°11'712.9
2018-Jul-18 05:30N 45°33' E 013°20'612.4
2018-Jul-18 05:00N 45°36' E 013°28'612.0
2018-Jul-18 04:30N 45°38' E 013°36'612.2
2018-Jul-18 04:00N 45°34' E 013°42'1 2.6
2018-Jul-18 03:27N 45°33' E 013°44'0 0.0
2018-Jul-18 02:57N 45°33' E 013°44'0 0.0
2018-Jul-18 02:23N 45°33' E 013°44'0 0.0
2018-Jul-18 01:59N 45°33' E 013°44'0 0.0
2018-Jul-18 01:29N 45°33' E 013°44'0 0.0
2018-Jul-18 00:59N 45°33' E 013°44'0 0.0
2018-Jul-18 00:29N 45°33' E 013°44'0 0.0
2018-Jul-17 23:58N 45°33' E 013°44'0 0.0
2018-Jul-17 23:28N 45°33' E 013°44'0 0.0
2018-Jul-17 22:46N 45°33' E 013°44'0 0.0
2018-Jul-17 22:28N 45°33' E 013°44'0 0.0
2018-Jul-17 21:58N 45°33' E 013°44'0 0.0
2018-Jul-17 21:30N 45°33' E 013°44'0 0.0
2018-Jul-17 21:00N 45°33' E 013°44'0 0.0
2018-Jul-17 20:30N 45°33' E 013°44'0 0.0
2018-Jul-17 20:00N 45°33' E 013°44'0 0.5
2018-Jul-17 19:30N 45°33' E 013°44'2 3.3
2018-Jul-17 19:00N 45°34' E 013°42'1 1.3
2018-Jul-17 18:31N 45°34' E 013°42'0 0.1
2018-Jul-17 17:57N 45°34' E 013°42'0 0.1
2018-Jul-17 17:30N 45°34' E 013°42'0 0.1
2018-Jul-17 17:00N 45°34' E 013°42'0 0.0
2018-Jul-17 16:30N 45°34' E 013°42'0 0.0
2018-Jul-17 16:00N 45°34' E 013°42'0 0.0
2018-Jul-17 15:30N 45°34' E 013°42'0 0.2
2018-Jul-17 15:00N 45°34' E 013°42'0 0.1
2018-Jul-17 14:30N 45°34' E 013°42'0 0.0
2018-Jul-17 13:59N 45°34' E 013°42'0 0.0
2018-Jul-17 13:30N 45°34' E 013°42'0 0.0
2018-Jul-17 13:00N 45°34' E 013°42'0 0.0
2018-Jul-17 12:30N 45°34' E 013°42'0 0.0
2018-Jul-17 12:00N 45°34' E 013°42'0 0.0
2018-Jul-17 11:30N 45°34' E 013°42'0 0.0
2018-Jul-17 11:00N 45°34' E 013°42'0 0.0
2018-Jul-17 10:30N 45°34' E 013°42'0 0.0
2018-Jul-17 10:01N 45°34' E 013°42'0 0.0
2018-Jul-17 09:30N 45°34' E 013°42'0 0.0
2018-Jul-17 09:00N 45°34' E 013°42'0 0.3
2018-Jul-17 08:30N 45°34' E 013°42'1 1.4
2018-Jul-17 08:00N 45°34' E 013°41'3 6.8
2018-Jul-17 07:30N 45°34' E 013°36'611.3
2018-Jul-17 07:00N 45°33' E 013°28'612.5
2018-Jul-17 06:30N 45°29' E 013°21'612.5
2018-Jul-17 06:00N 45°25' E 013°15'611.2
2018-Jul-17 05:28N 45°19' E 013°14'612.2
2018-Jul-17 04:56N 45°12' E 013°16'512.4
2018-Jul-17 04:30N 45°07' E 013°19'612.8
2018-Jul-17 04:01N 45°01' E 013°22'612.5
2018-Jul-17 03:30N 44°55' E 013°26'612.1
2018-Jul-17 03:01N 44°50' E 013°30'712.1
2018-Jul-17 02:27N 44°45' E 013°35'512.1
2018-Jul-17 02:00N 44°40' E 013°39'612.0
2018-Jul-17 01:30N 44°35' E 013°44'612.4
2018-Jul-17 01:01N 44°30' E 013°49'612.4
2018-Jul-17 00:29N 44°25' E 013°53'6512.1
2018-Jul-16 19:05N 43°32' E 014°48'112.3
2018-Jul-16 19:00N 43°31' E 014°49'  
2018-Jul-13 17:30N 32°34' E 032°49'816.9
2018-Jul-13 17:00N 32°31' E 032°58'1116.9
2018-Jul-13 16:23N 32°26' E 033°09'616.9
2018-Jul-13 16:00N 32°23' E 033°16'816.8
2018-Jul-13 15:30N 32°20' E 033°25'68 2.5
2018-Jul-12 12:01N 31°51' E 034°38'0 6.1
2018-Jul-12 12:00N 31°52' E 034°38'11 2.6
2018-Jul-12 07:41N 32°01' E 034°31'1 4.5
2018-Jul-12 07:29N 32°02' E 034°32'2 4.5
2018-Jul-12 07:00N 32°04' E 034°33'2 4.5
2018-Jul-12 06:30N 32°06' E 034°34'2 4.4
2018-Jul-12 05:58N 32°09' E 034°35'2 4.4
2018-Jul-12 05:30N 32°11' E 034°35'3 5.0
2018-Jul-12 04:59N 32°13' E 034°36'6 5.2
2018-Jul-12 03:44N 32°19' E 034°38'1 5.2
2018-Jul-12 03:30N 32°20' E 034°38'3 5.1
2018-Jul-12 03:00N 32°23' E 034°39'3 5.1
2018-Jul-12 02:30N 32°25' E 034°40'3 5.0
2018-Jul-12 02:00N 32°28' E 034°41'2 4.9
2018-Jul-12 01:30N 32°30' E 034°42'2 4.9
2018-Jul-12 01:00N 32°33' E 034°42'2 4.5
2018-Jul-12 00:30N 32°35' E 034°43'2 4.6
2018-Jul-12 00:00N 32°37' E 034°44'2 4.6
2018-Jul-11 23:30N 32°39' E 034°44'2 4.6
2018-Jul-11 23:00N 32°41' E 034°45'2 4.5
2018-Jul-11 22:30N 32°44' E 034°46'2 4.6
2018-Jul-11 22:00N 32°46' E 034°46'2 4.6
2018-Jul-11 21:30N 32°48' E 034°47'3 4.9
2018-Jul-11 20:58N 32°51' E 034°48'2 4.3
2018-Jul-11 20:29N 32°53' E 034°49'2 4.9
2018-Jul-11 20:00N 32°52' E 034°52'3 5.5
2018-Jul-11 19:28N 32°52' E 034°55'2 4.8
2018-Jul-11 19:00N 32°52' E 034°58'2 0.1
2018-Jul-11 01:52N 32°51' E 034°60'410.8
2018-Jul-11 01:30N 32°52' E 034°55'611.4
2018-Jul-11 01:00N 32°53' E 034°48'  
Track history (hours):
 
Tides and Currents Weather Stations Pressure Air Temp Water Temp Dewpoint Dewpoint Depression Visibility Wind Speed Wind Dir Waves Ship Positions

Asiatic Liberty

Last reported at 2018-Jul-20 07:28 UTC. Time now 2018-Jul-22 14:36 UTC.
Position N 43°16' E 014°47'.

Length 148 m; draft 6.6 m.

Type: Ship (hazmat cat A). MMSI: 565834000.

Date/timePositionNaut miles runAvg speedWind from/ knotsBaromVisibWave heightAir tempDewpointWater temp
2018-Jul-20 07:28N 43°16' E 014°47'2511.1
2018-Jul-20 05:12N 43°32' E 014°21'211.3
2018-Jul-20 05:00N 43°34' E 014°19'711.0
2018-Jul-20 04:20N 43°39' E 014°11'411.0
2018-Jul-20 04:00N 43°41' E 014°07'511.1
2018-Jul-20 03:30N 43°45' E 014°02'611.3
2018-Jul-20 02:57N 43°49' E 013°56'511.4
2018-Jul-20 02:30N 43°53' E 013°51'611.4
2018-Jul-20 02:00N 43°56' E 013°44'611.4
2018-Jul-20 01:30N 43°59' E 013°38'711.5
2018-Jul-20 00:53N 44°03' E 013°29'711.3
2018-Jul-20 00:14N 44°08' E 013°21'311.3
2018-Jul-20 00:00N 44°09' E 013°18'611.4
2018-Jul-19 23:31N 44°12' E 013°11'611.5
2018-Jul-19 23:00N 44°15' E 013°05'611.6
2018-Jul-19 22:31N 44°18' E 012°58'711.5
2018-Jul-19 21:54N 44°22' E 012°49'511.6
2018-Jul-19 21:30N 44°24' E 012°44'611.4
2018-Jul-19 21:00N 44°27' E 012°36'611.4
2018-Jul-19 20:29N 44°29' E 012°29'511.0
2018-Jul-19 20:00N 44°30' E 012°22'4 7.8
2018-Jul-19 19:30N 44°29' E 012°16'2 0.7
2018-Jul-19 16:00N 44°27' E 012°15'0 0.0
2018-Jul-19 15:18N 44°27' E 012°15'0 0.0
2018-Jul-19 14:48N 44°27' E 012°15'0 0.0
2018-Jul-19 11:13N 44°27' E 012°15'0 0.0
2018-Jul-19 10:40N 44°27' E 012°15'0 0.0
2018-Jul-19 10:28N 44°27' E 012°15'0 0.9
2018-Jul-19 09:59N 44°27' E 012°15'2 4.5
2018-Jul-19 09:30N 44°29' E 012°16'4 8.1
2018-Jul-19 09:00N 44°30' E 012°21'5 9.8
2018-Jul-19 08:30N 44°34' E 012°25'611.4
2018-Jul-19 07:59N 44°39' E 012°29'611.6
2018-Jul-19 07:30N 44°44' E 012°32'611.6
2018-Jul-19 07:00N 44°50' E 012°35'611.7
2018-Jul-19 06:29N 44°55' E 012°38'612.0
2018-Jul-19 06:00N 45°01' E 012°40'612.2
2018-Jul-19 05:30N 45°07' E 012°40'612.2
2018-Jul-19 05:00N 45°11' E 012°33'611.5
2018-Jul-19 04:29N 45°16' E 012°28'611.8
2018-Jul-19 04:00N 45°20' E 012°22'5 9.6
2018-Jul-19 03:29N 45°21' E 012°15'4 8.7
2018-Jul-19 03:00N 45°26' E 012°16'2 3.1
2018-Jul-19 02:26N 45°27' E 012°15'0 0.0
2018-Jul-19 01:59N 45°27' E 012°15'0 0.0
2018-Jul-19 00:55N 45°27' E 012°15'0 0.0
2018-Jul-19 00:28N 45°27' E 012°15'0 0.0
2018-Jul-18 23:52N 45°27' E 012°15'0 0.0
2018-Jul-18 23:28N 45°27' E 012°15'0 0.0
2018-Jul-18 22:58N 45°27' E 012°15'0 0.0
2018-Jul-18 22:27N 45°27' E 012°15'0 0.0
2018-Jul-18 22:00N 45°27' E 012°15'0 0.0
2018-Jul-18 21:27N 45°27' E 012°15'0 0.0
2018-Jul-18 20:14N 45°27' E 012°15'0 0.0
2018-Jul-18 19:53N 45°27' E 012°15'0 0.0
2018-Jul-18 19:23N 45°27' E 012°15'0 0.0
2018-Jul-18 18:41N 45°27' E 012°15'0 0.0
2018-Jul-18 18:23N 45°27' E 012°15'0 0.0
2018-Jul-18 17:58N 45°27' E 012°15'0 0.0
2018-Jul-18 17:25N 45°27' E 012°15'0 0.0
2018-Jul-18 16:58N 45°27' E 012°15'0 0.0
2018-Jul-18 16:28N 45°27' E 012°15'0 0.0
2018-Jul-18 16:01N 45°27' E 012°15'0 0.0
2018-Jul-18 15:27N 45°27' E 012°15'0 0.0
2018-Jul-18 14:45N 45°27' E 012°15'0 0.0
2018-Jul-18 14:30N 45°27' E 012°15'0 0.0
2018-Jul-18 13:17N 45°27' E 012°15'0 0.0
2018-Jul-18 12:53N 45°27' E 012°15'0 0.0
2018-Jul-18 12:26N 45°27' E 012°15'0 0.0
2018-Jul-18 12:01N 45°27' E 012°15'0 0.0
2018-Jul-18 11:26N 45°27' E 012°15'0 0.2
2018-Jul-18 10:30N 45°27' E 012°15'3 5.5
2018-Jul-18 10:00N 45°24' E 012°16'4 8.1
2018-Jul-18 09:29N 45°20' E 012°18'510.0
2018-Jul-18 09:00N 45°19' E 012°24'610.8
2018-Jul-18 08:29N 45°18' E 012°32'612.2
2018-Jul-18 08:00N 45°20' E 012°40'612.0
2018-Jul-18 07:30N 45°23' E 012°47'612.3
2018-Jul-18 07:00N 45°26' E 012°55'612.3
2018-Jul-18 06:30N 45°29' E 013°03'612.3
2018-Jul-18 06:00N 45°31' E 013°11'712.9
2018-Jul-18 05:30N 45°33' E 013°20'612.4
2018-Jul-18 05:00N 45°36' E 013°28'612.0
2018-Jul-18 04:30N 45°38' E 013°36'612.2
2018-Jul-18 04:00N 45°34' E 013°42'1 2.6
2018-Jul-18 03:27N 45°33' E 013°44'0 0.0
2018-Jul-18 02:57N 45°33' E 013°44'0 0.0
2018-Jul-18 02:23N 45°33' E 013°44'0 0.0
2018-Jul-18 01:59N 45°33' E 013°44'0 0.0
2018-Jul-18 01:29N 45°33' E 013°44'0 0.0
2018-Jul-18 00:59N 45°33' E 013°44'0 0.0
2018-Jul-18 00:29N 45°33' E 013°44'0 0.0
2018-Jul-17 23:58N 45°33' E 013°44'0 0.0
2018-Jul-17 23:28N 45°33' E 013°44'0 0.0
2018-Jul-17 22:46N 45°33' E 013°44'0 0.0
2018-Jul-17 22:28N 45°33' E 013°44'0 0.0
2018-Jul-17 21:58N 45°33' E 013°44'0 0.0
2018-Jul-17 21:30N 45°33' E 013°44'0 0.0
2018-Jul-17 21:00N 45°33' E 013°44'0 0.0
2018-Jul-17 20:30N 45°33' E 013°44'0 0.0
2018-Jul-17 20:00N 45°33' E 013°44'0 0.5
2018-Jul-17 19:30N 45°33' E 013°44'2 3.3
2018-Jul-17 19:00N 45°34' E 013°42'1 1.3
2018-Jul-17 18:31N 45°34' E 013°42'0 0.1
2018-Jul-17 17:57N 45°34' E 013°42'0 0.1
2018-Jul-17 17:30N 45°34' E 013°42'0 0.1
2018-Jul-17 17:00N 45°34' E 013°42'0 0.0
2018-Jul-17 16:30N 45°34' E 013°42'0 0.0
2018-Jul-17 16:00N 45°34' E 013°42'0 0.0
2018-Jul-17 15:30N 45°34' E 013°42'0 0.2
2018-Jul-17 15:00N 45°34' E 013°42'0 0.1
2018-Jul-17 14:30N 45°34' E 013°42'0 0.0
2018-Jul-17 13:59N 45°34' E 013°42'0 0.0
2018-Jul-17 13:30N 45°34' E 013°42'0 0.0
2018-Jul-17 13:00N 45°34' E 013°42'0 0.0
2018-Jul-17 12:30N 45°34' E 013°42'0 0.0
2018-Jul-17 12:00N 45°34' E 013°42'0 0.0
2018-Jul-17 11:30N 45°34' E 013°42'0 0.0
2018-Jul-17 11:00N 45°34' E 013°42'0 0.0
2018-Jul-17 10:30N 45°34' E 013°42'0 0.0
2018-Jul-17 10:01N 45°34' E 013°42'0 0.0
2018-Jul-17 09:30N 45°34' E 013°42'0 0.0
2018-Jul-17 09:00N 45°34' E 013°42'0 0.3
2018-Jul-17 08:30N 45°34' E 013°42'1 1.4
2018-Jul-17 08:00N 45°34' E 013°41'3 6.8
2018-Jul-17 07:30N 45°34' E 013°36'611.3
2018-Jul-17 07:00N 45°33' E 013°28'612.5
2018-Jul-17 06:30N 45°29' E 013°21'612.5
2018-Jul-17 06:00N 45°25' E 013°15'611.2
2018-Jul-17 05:28N 45°19' E 013°14'612.2
2018-Jul-17 04:56N 45°12' E 013°16'512.4
2018-Jul-17 04:30N 45°07' E 013°19'612.8
2018-Jul-17 04:01N 45°01' E 013°22'612.5
2018-Jul-17 03:30N 44°55' E 013°26'612.1
2018-Jul-17 03:01N 44°50' E 013°30'712.1
2018-Jul-17 02:27N 44°45' E 013°35'512.1
2018-Jul-17 02:00N 44°40' E 013°39'612.0
2018-Jul-17 01:30N 44°35' E 013°44'612.4
2018-Jul-17 01:01N 44°30' E 013°49'612.4
2018-Jul-17 00:29N 44°25' E 013°53'6512.1
2018-Jul-16 19:05N 43°32' E 014°48'112.3
2018-Jul-16 19:00N 43°31' E 014°49'  
2018-Jul-13 17:30N 32°34' E 032°49'816.9
2018-Jul-13 17:00N 32°31' E 032°58'1116.9
2018-Jul-13 16:23N 32°26' E 033°09'616.9
2018-Jul-13 16:00N 32°23' E 033°16'816.8
2018-Jul-13 15:30N 32°20' E 033°25'68 2.5
2018-Jul-12 12:01N 31°51' E 034°38'0 6.1
2018-Jul-12 12:00N 31°52' E 034°38'11 2.6
2018-Jul-12 07:41N 32°01' E 034°31'1 4.5
2018-Jul-12 07:29N 32°02' E 034°32'2 4.5
2018-Jul-12 07:00N 32°04' E 034°33'2 4.5
2018-Jul-12 06:30N 32°06' E 034°34'2 4.4
2018-Jul-12 05:58N 32°09' E 034°35'2 4.4
2018-Jul-12 05:30N 32°11' E 034°35'3 5.0
2018-Jul-12 04:59N 32°13' E 034°36'6 5.2
2018-Jul-12 03:44N 32°19' E 034°38'1 5.2
2018-Jul-12 03:30N 32°20' E 034°38'3 5.1
2018-Jul-12 03:00N 32°23' E 034°39'3 5.1
2018-Jul-12 02:30N 32°25' E 034°40'3 5.0
2018-Jul-12 02:00N 32°28' E 034°41'2 4.9
2018-Jul-12 01:30N 32°30' E 034°42'2 4.9
2018-Jul-12 01:00N 32°33' E 034°42'2 4.5
2018-Jul-12 00:30N 32°35' E 034°43'2 4.6
2018-Jul-12 00:00N 32°37' E 034°44'2 4.6
2018-Jul-11 23:30N 32°39' E 034°44'2 4.6
2018-Jul-11 23:00N 32°41' E 034°45'2 4.5
2018-Jul-11 22:30N 32°44' E 034°46'2 4.6
2018-Jul-11 22:00N 32°46' E 034°46'2 4.6
2018-Jul-11 21:30N 32°48' E 034°47'3 4.9
2018-Jul-11 20:58N 32°51' E 034°48'2 4.3
2018-Jul-11 20:29N 32°53' E 034°49'2 4.9
2018-Jul-11 20:00N 32°52' E 034°52'3 5.5
2018-Jul-11 19:28N 32°52' E 034°55'2 4.8
2018-Jul-11 19:00N 32°52' E 034°58'2 0.1
2018-Jul-11 01:52N 32°51' E 034°60'410.8
2018-Jul-11 01:30N 32°52' E 034°55'611.4
2018-Jul-11 01:00N 32°53' E 034°48'  

Dump ship's entire track history